createdAt,value
2022-11-11T00:01:02.382Z,72.70
2022-11-11T00:03:30.945Z,72.93
2022-11-11T00:06:02.533Z,71.77
2022-11-11T00:08:32.163Z,68.67
2022-11-11T00:11:04.036Z,71.73
2022-11-11T00:13:32.560Z,69.00
2022-11-11T00:16:05.610Z,68.07
2022-11-11T00:18:51.537Z,72.13
2022-11-11T00:21:37.310Z,71.20
2022-11-11T00:24:24.564Z,67.20
2022-11-11T00:26:52.648Z,70.40
2022-11-11T00:29:21.274Z,70.43
2022-11-11T00:32:06.166Z,66.67
2022-11-11T00:34:34.278Z,67.40
2022-11-11T00:37:02.454Z,69.33
2022-11-11T00:39:32.042Z,65.37
2022-11-11T00:42:00.193Z,66.47
2022-11-11T00:44:28.352Z,65.93
2022-11-11T00:47:10.382Z,69.67
2022-11-11T00:49:56.317Z,69.17
2022-11-11T00:52:24.526Z,72.47
2022-11-11T00:54:54.082Z,69.03
2022-11-11T00:57:22.263Z,67.50
2022-11-11T00:59:50.519Z,65.57
2022-11-11T01:02:18.681Z,68.00
2022-11-11T01:04:46.903Z,68.07
2022-11-11T01:07:15.150Z,69.17
2022-11-11T01:09:43.557Z,68.60
2022-11-11T01:12:13.077Z,71.40
2022-11-11T01:14:41.294Z,70.03
2022-11-11T01:17:09.882Z,64.53
2022-11-11T01:19:38.015Z,70.43
2022-11-11T01:22:06.198Z,69.57
2022-11-11T01:24:34.315Z,62.97
2022-11-11T01:27:02.552Z,66.30
2022-11-11T01:29:32.216Z,63.03
2022-11-11T01:32:00.380Z,59.47
2022-11-11T01:34:28.919Z,60.90
2022-11-11T01:36:57.229Z,60.43
2022-11-11T01:39:25.477Z,61.60
2022-11-11T01:41:56.825Z,61.03
2022-11-11T01:44:46.433Z,63.77
2022-11-11T01:47:14.794Z,57.60
2022-11-11T01:49:46.992Z,62.20
2022-11-11T01:52:17.329Z,59.80
2022-11-11T01:54:47.258Z,56.60
2022-11-11T01:57:18.973Z,57.60
2022-11-11T01:59:49.776Z,55.93
2022-11-11T02:02:20.665Z,60.00
2022-11-11T02:05:17.933Z,59.40
2022-11-11T02:07:46.391Z,61.03
2022-11-11T02:10:14.543Z,54.50
2022-11-11T02:12:56.764Z,61.70
2022-11-11T02:15:26.310Z,58.30
2022-11-11T02:17:54.507Z,61.47
2022-11-11T02:20:25.036Z,57.07
2022-11-11T02:22:54.097Z,55.87
2022-11-11T02:25:24.725Z,58.27
2022-11-11T02:27:53.555Z,57.57
2022-11-11T02:30:22.327Z,55.27
2022-11-11T02:32:51.303Z,52.80
2022-11-11T02:35:20.591Z,54.57
2022-11-11T02:37:50.974Z,59.43
2022-11-11T02:40:20.111Z,50.57
2022-11-11T02:42:49.798Z,53.30
2022-11-11T02:45:18.039Z,57.03
2022-11-11T02:47:46.248Z,59.73
2022-11-11T02:50:14.411Z,54.93
2022-11-11T02:52:42.734Z,52.67
2022-11-11T02:55:11.179Z,52.90
2022-11-11T02:57:39.528Z,55.07
2022-11-11T03:00:10.884Z,52.80
2022-11-11T03:02:39.380Z,51.47
2022-11-11T03:05:08.014Z,54.90
2022-11-11T03:07:36.417Z,55.03
2022-11-11T03:10:04.892Z,59.07
2022-11-11T03:12:33.209Z,56.17
2022-11-11T03:15:01.419Z,60.33
2022-11-11T03:17:42.051Z,56.70
2022-11-11T03:20:29.305Z,59.83
2022-11-11T03:23:04.477Z,56.17
2022-11-11T03:25:39.873Z,57.80
2022-11-11T03:28:08.420Z,60.43
2022-11-11T03:30:36.683Z,58.33
2022-11-11T03:33:06.184Z,57.63
2022-11-11T03:35:34.351Z,56.97
2022-11-11T03:38:16.553Z,55.33
2022-11-11T03:40:44.759Z,52.23
2022-11-11T03:43:13.128Z,54.83
2022-11-11T03:45:41.303Z,52.10
2022-11-11T03:48:10.844Z,54.27
2022-11-11T03:50:39.290Z,55.80
2022-11-11T03:53:07.492Z,48.43
2022-11-11T03:55:35.674Z,51.10
2022-11-11T03:58:03.869Z,47.60
2022-11-11T04:00:31.964Z,47.97
2022-11-11T04:03:25.284Z,45.80
2022-11-11T04:06:17.707Z,45.00
2022-11-11T04:09:03.493Z,49.57
2022-11-11T04:11:33.150Z,51.20
2022-11-11T04:14:20.314Z,48.17
2022-11-11T04:16:48.441Z,46.77
2022-11-11T04:19:34.041Z,46.83
2022-11-11T04:22:03.588Z,40.43
2022-11-11T04:24:49.259Z,43.83
2022-11-11T04:27:18.681Z,47.57
2022-11-11T04:29:47.919Z,45.57
2022-11-11T04:32:34.498Z,43.50
2022-11-11T04:35:03.259Z,43.80
2022-11-11T04:37:34.780Z,44.07
2022-11-11T04:40:20.229Z,44.27
2022-11-11T04:42:48.570Z,42.03
2022-11-11T04:45:27.987Z,40.30
2022-11-11T04:47:59.777Z,42.73
2022-11-11T04:50:28.829Z,40.67
2022-11-11T04:52:58.487Z,45.70
2022-11-11T04:55:43.935Z,44.23
2022-11-11T04:58:12.246Z,43.90
2022-11-11T05:00:40.413Z,41.97
2022-11-11T05:03:16.896Z,45.27
2022-11-11T05:06:03.645Z,43.43
2022-11-11T05:08:50.634Z,42.57
2022-11-11T05:11:19.041Z,47.13
2022-11-11T05:14:04.723Z,44.03
2022-11-11T05:16:51.885Z,45.70
2022-11-11T05:19:37.707Z,41.73
2022-11-11T05:22:10.276Z,56.97
2022-11-11T05:24:57.280Z,48.27
2022-11-11T05:27:25.357Z,41.67
2022-11-11T05:29:53.433Z,38.77
2022-11-11T05:32:22.215Z,48.27
2022-11-11T05:34:50.412Z,41.90
2022-11-11T05:37:18.633Z,41.67
2022-11-11T05:39:48.214Z,43.77
2022-11-11T05:42:16.441Z,44.13
2022-11-11T05:44:44.673Z,41.20
2022-11-11T05:47:12.763Z,46.00
2022-11-11T05:49:40.812Z,42.80
2022-11-11T05:52:09.247Z,45.33
2022-11-11T05:54:37.359Z,46.37
2022-11-11T05:57:07.076Z,44.53
2022-11-11T05:59:35.262Z,42.77
2022-11-11T06:02:03.439Z,45.27
2022-11-11T06:04:31.826Z,44.63
2022-11-11T06:07:00.027Z,49.70
2022-11-11T06:09:28.136Z,43.37
2022-11-11T06:11:56.243Z,45.43
2022-11-11T06:14:25.866Z,47.77
2022-11-11T06:16:53.995Z,46.63
2022-11-11T06:19:22.125Z,47.37
2022-11-11T06:21:59.167Z,44.10
2022-11-11T06:24:27.432Z,48.57
2022-11-11T06:26:56.021Z,48.73
2022-11-11T06:29:25.622Z,42.93
2022-11-11T06:31:53.754Z,49.53
2022-11-11T06:34:21.908Z,47.30
2022-11-11T06:36:50.009Z,40.60
2022-11-11T06:39:18.137Z,46.03
2022-11-11T06:41:46.262Z,42.47
2022-11-11T06:44:14.419Z,42.07
2022-11-11T06:46:43.883Z,50.47
2022-11-11T06:49:12.397Z,44.43
2022-11-11T06:51:40.473Z,44.50
2022-11-11T06:54:08.854Z,45.67
2022-11-11T06:56:36.981Z,51.43
2022-11-11T06:59:05.057Z,41.53
2022-11-11T07:01:33.321Z,46.93
2022-11-11T07:04:02.927Z,51.63
2022-11-11T07:06:31.081Z,41.93
2022-11-11T07:08:59.357Z,51.30
2022-11-11T07:11:27.462Z,47.07
2022-11-11T07:13:55.897Z,51.23
2022-11-11T07:16:23.957Z,50.40
2022-11-11T07:18:52.137Z,49.00
2022-11-11T07:21:21.653Z,52.03
2022-11-11T07:23:49.849Z,53.50
2022-11-11T07:26:18.015Z,52.67
2022-11-11T07:28:46.104Z,57.43
2022-11-11T07:31:14.178Z,63.50
2022-11-11T07:33:42.407Z,63.67
2022-11-11T07:36:10.628Z,60.67
2022-11-11T07:38:40.253Z,52.60
2022-11-11T07:41:08.348Z,51.77
2022-11-11T07:43:36.498Z,54.07
2022-11-11T07:46:04.617Z,52.33
2022-11-11T07:48:32.805Z,48.60
2022-11-11T07:51:00.956Z,45.43
2022-11-11T07:53:29.287Z,41.73
2022-11-11T07:55:58.819Z,40.47
2022-11-11T07:58:27.144Z,35.10
2022-11-11T08:00:55.533Z,24.67
2022-11-11T08:03:23.932Z,31.07
2022-11-11T08:05:52.233Z,23.57
2022-11-11T08:08:25.649Z,28.30
2022-11-11T08:10:55.543Z,27.10
2022-11-11T08:13:43.656Z,29.33
2022-11-11T08:16:12.260Z,29.17
2022-11-11T08:18:40.500Z,27.03
2022-11-11T08:21:09.378Z,30.23
2022-11-11T08:24:10.592Z,27.40
2022-11-11T08:26:29.525Z,27.33
2022-11-11T08:28:59.567Z,25.60
2022-11-11T08:31:27.990Z,22.53
2022-11-11T08:33:56.221Z,24.20
2022-11-11T08:36:25.413Z,25.50
2022-11-11T08:38:54.267Z,26.87
2022-11-11T08:41:23.842Z,32.30
2022-11-11T08:43:55.566Z,23.57
2022-11-11T08:46:25.175Z,22.43
2022-11-11T08:48:53.653Z,24.43
2022-11-11T08:51:21.809Z,23.43
2022-11-11T08:53:50.223Z,18.50
2022-11-11T08:56:18.379Z,24.47
2022-11-11T08:58:46.551Z,24.97
2022-11-11T09:01:14.963Z,20.40
2022-11-11T09:03:46.273Z,22.73
2022-11-11T09:06:14.407Z,26.43
2022-11-11T09:08:44.173Z,25.47
2022-11-11T09:11:12.451Z,22.50
2022-11-11T09:13:41.410Z,25.30
2022-11-11T09:16:10.407Z,28.43
2022-11-11T09:18:38.585Z,23.10
2022-11-11T09:21:08.195Z,22.60
2022-11-11T09:23:36.362Z,26.27
2022-11-11T09:26:05.373Z,22.30
2022-11-11T09:28:34.498Z,25.90
2022-11-11T09:31:16.647Z,21.43
2022-11-11T09:33:51.057Z,27.33
2022-11-11T09:36:20.667Z,25.73
2022-11-11T09:38:48.778Z,23.80
2022-11-11T09:41:20.453Z,26.03
2022-11-11T09:43:53.697Z,30.50
2022-11-11T09:46:37.010Z,29.07
2022-11-11T09:49:26.892Z,22.27
2022-11-11T09:51:58.144Z,21.43
2022-11-11T09:54:32.376Z,24.10
2022-11-11T09:57:01.226Z,23.93
2022-11-11T09:59:31.456Z,24.03
2022-11-11T10:01:59.798Z,23.40
2022-11-11T10:04:31.499Z,23.60
2022-11-11T10:07:03.450Z,26.70
2022-11-11T10:09:34.989Z,29.87
2022-11-11T10:12:07.141Z,24.63
2022-11-11T10:14:37.915Z,27.07
2022-11-11T10:17:11.254Z,26.67
2022-11-11T10:19:42.768Z,27.77
2022-11-11T10:22:20.243Z,22.60
2022-11-11T10:24:51.492Z,24.10
2022-11-11T10:27:21.618Z,22.93
2022-11-11T10:29:49.706Z,20.73
2022-11-11T10:32:19.159Z,20.97
2022-11-11T10:34:47.373Z,17.37
2022-11-11T10:37:21.067Z,16.70
2022-11-11T10:40:01.296Z,22.10
2022-11-11T10:42:29.532Z,24.63
2022-11-11T10:45:03.866Z,20.33
2022-11-11T10:47:42.643Z,16.10
2022-11-11T10:50:15.722Z,17.63
2022-11-11T10:52:46.213Z,20.13
2022-11-11T10:55:16.439Z,23.43
2022-11-11T10:57:46.491Z,18.27
2022-11-11T11:00:15.661Z,20.37
2022-11-11T11:02:46.913Z,20.03
2022-11-11T11:05:16.209Z,23.07
2022-11-11T11:07:48.629Z,23.70
2022-11-11T11:10:17.872Z,23.00
2022-11-11T11:12:48.435Z,22.57
2022-11-11T11:15:18.996Z,21.63
2022-11-11T11:17:52.264Z,25.77
2022-11-11T11:20:21.778Z,24.50
2022-11-11T11:22:53.017Z,19.90
2022-11-11T11:25:21.470Z,19.63
2022-11-11T11:27:51.542Z,21.87
2022-11-11T11:30:21.103Z,18.17
2022-11-11T11:32:58.150Z,17.70
2022-11-11T11:35:37.262Z,18.83
2022-11-11T11:38:07.100Z,21.43
2022-11-11T11:40:49.086Z,16.63
2022-11-11T11:43:34.735Z,19.50
2022-11-11T11:46:08.035Z,12.63
2022-11-11T11:48:45.739Z,10.90
2022-11-11T11:51:22.447Z,15.47
2022-11-11T11:53:59.036Z,12.33
2022-11-11T11:56:34.891Z,11.03
2022-11-11T11:59:06.250Z,10.33
2022-11-11T12:01:37.082Z,14.43
2022-11-11T12:04:39.622Z,12.00
2022-11-11T12:07:14.381Z,12.03
2022-11-11T12:09:50.416Z,10.37
2022-11-11T12:12:22.563Z,13.03
2022-11-11T12:14:56.512Z,16.50
2022-11-11T12:17:30.349Z,19.87
2022-11-11T12:20:02.745Z,18.00
2022-11-11T12:22:42.795Z,21.53
2022-11-11T12:25:19.139Z,18.83
2022-11-11T12:27:53.763Z,15.77
2022-11-11T12:30:27.527Z,20.77
2022-11-11T12:33:14.786Z,17.13
2022-11-11T12:35:50.185Z,15.37
2022-11-11T12:38:26.985Z,13.33
2022-11-11T12:41:02.897Z,14.53
2022-11-11T12:43:33.677Z,12.27
2022-11-11T12:46:05.876Z,11.53
2022-11-11T12:48:42.368Z,9.93
2022-11-11T12:51:15.291Z,10.07
2022-11-11T12:53:48.111Z,11.63
2022-11-11T12:56:23.614Z,8.60
2022-11-11T12:58:55.414Z,11.13
2022-11-11T13:01:26.322Z,12.13
2022-11-11T13:04:23.815Z,11.17
2022-11-11T13:07:07.113Z,12.53
2022-11-11T13:09:46.467Z,13.50
2022-11-11T13:12:18.672Z,11.57
2022-11-11T13:15:00.037Z,11.73
2022-11-11T13:17:28.253Z,10.53
2022-11-11T13:19:59.536Z,11.60
2022-11-11T13:22:28.629Z,11.93
2022-11-11T13:24:58.751Z,13.53
2022-11-11T13:27:40.003Z,12.17
2022-11-11T13:30:40.612Z,12.90
2022-11-11T13:33:10.293Z,12.30
2022-11-11T13:35:40.821Z,13.77
2022-11-11T13:38:10.518Z,18.07
2022-11-11T13:40:40.388Z,17.03
2022-11-11T13:43:16.659Z,17.50
2022-11-11T13:45:44.988Z,13.57
2022-11-11T13:48:22.842Z,13.03
2022-11-11T13:50:51.184Z,17.80
2022-11-11T13:53:27.845Z,14.97
2022-11-11T13:56:00.176Z,13.87
2022-11-11T13:58:31.887Z,14.40
2022-11-11T14:01:00.635Z,13.53
2022-11-11T14:03:38.950Z,14.47
2022-11-11T14:06:54.783Z,15.90
2022-11-11T14:10:08.236Z,16.83
2022-11-11T14:12:38.490Z,17.83
2022-11-11T14:15:33.234Z,21.10
2022-11-11T14:18:01.456Z,14.40
2022-11-11T14:20:39.059Z,14.27
2022-11-11T14:23:29.054Z,17.40
2022-11-11T14:26:27.872Z,18.40
2022-11-11T14:29:00.272Z,17.17
2022-11-11T14:32:03.628Z,17.20
2022-11-11T14:34:43.106Z,15.67
2022-11-11T14:37:19.039Z,16.77
2022-11-11T14:39:49.152Z,15.63
2022-11-11T14:42:48.939Z,14.00
2022-11-11T14:45:59.492Z,14.03
2022-11-11T14:49:02.291Z,19.47
2022-11-11T14:51:54.014Z,17.67
2022-11-11T14:55:03.606Z,19.67
2022-11-11T14:57:33.587Z,42.43
2022-11-11T15:00:01.645Z,35.33
2022-11-11T15:02:32.109Z,87.93
2022-11-11T15:05:00.987Z,73.83
2022-11-11T15:07:39.529Z,51.33
2022-11-11T15:10:17.205Z,62.00
2022-11-11T15:13:05.452Z,41.77
2022-11-11T15:15:35.719Z,32.77
2022-11-11T15:18:08.571Z,25.83
2022-11-11T15:20:55.594Z,25.13
2022-11-11T15:23:29.169Z,20.07
2022-11-11T15:26:01.295Z,19.70
2022-11-11T15:28:39.668Z,24.17
2022-11-11T15:31:12.320Z,26.47
2022-11-11T15:33:51.287Z,31.03
2022-11-11T15:36:26.658Z,27.97
2022-11-11T15:38:56.703Z,28.27
2022-11-11T15:41:29.488Z,29.13
2022-11-11T15:44:00.447Z,28.50
2022-11-11T15:46:29.747Z,31.10
2022-11-11T15:48:57.824Z,26.80
2022-11-11T15:51:29.299Z,24.27
2022-11-11T15:54:15.642Z,26.30
2022-11-11T15:56:43.746Z,23.63
2022-11-11T15:59:20.979Z,24.73
2022-11-11T16:01:49.529Z,24.23
2022-11-11T16:04:53.325Z,23.73
2022-11-11T16:07:07.184Z,29.10
2022-11-11T16:09:36.674Z,25.37
2022-11-11T16:12:05.063Z,23.83
2022-11-11T16:14:34.038Z,24.23
2022-11-11T16:17:02.107Z,25.87
2022-11-11T16:19:33.345Z,24.30
2022-11-11T16:22:04.117Z,26.57
2022-11-11T16:24:33.709Z,26.57
2022-11-11T16:27:04.680Z,28.63
2022-11-11T16:29:35.724Z,26.63
2022-11-11T16:32:04.184Z,27.13
2022-11-11T16:34:44.562Z,24.87
2022-11-11T16:37:16.080Z,27.57
2022-11-11T16:39:44.499Z,23.77
2022-11-11T16:42:21.864Z,23.83
2022-11-11T16:44:51.775Z,23.30
2022-11-11T16:47:45.277Z,26.67
2022-11-11T16:50:15.476Z,23.80
2022-11-11T16:52:45.292Z,24.13
2022-11-11T16:55:20.611Z,28.07
2022-11-11T16:57:50.351Z,24.10
2022-11-11T17:00:19.958Z,25.77
2022-11-11T17:02:48.227Z,25.13
2022-11-11T17:05:16.451Z,26.33
2022-11-11T17:07:44.682Z,31.33
2022-11-11T17:10:15.071Z,24.07
2022-11-11T17:12:43.540Z,32.33
2022-11-11T17:15:14.258Z,32.83
2022-11-11T17:17:43.703Z,28.80
2022-11-11T17:20:13.871Z,30.27
2022-11-11T17:22:49.011Z,26.93
2022-11-11T17:25:17.115Z,33.20
2022-11-11T17:27:45.829Z,28.57
2022-11-11T17:30:15.798Z,28.80
2022-11-11T17:32:44.024Z,34.90
2022-11-11T17:35:12.384Z,28.80
2022-11-11T17:37:40.642Z,31.10
2022-11-11T17:40:09.910Z,31.97
2022-11-11T17:42:38.129Z,29.90
2022-11-11T17:45:07.177Z,25.67
2022-11-11T17:47:42.261Z,32.37
2022-11-11T17:50:12.178Z,32.73
2022-11-11T17:52:40.477Z,44.33
2022-11-11T17:55:09.544Z,47.77
2022-11-11T17:57:37.664Z,35.37
2022-11-11T18:00:06.833Z,33.00
2022-11-11T18:02:36.460Z,25.13
2022-11-11T18:05:04.815Z,29.77
2022-11-11T18:07:33.025Z,26.27
2022-11-11T18:10:02.637Z,29.97
2022-11-11T18:12:30.870Z,27.77
2022-11-11T18:14:58.979Z,27.77
2022-11-11T18:17:27.097Z,33.30
2022-11-11T18:19:56.735Z,36.90
2022-11-11T18:22:25.046Z,31.90
2022-11-11T18:24:53.450Z,31.93
2022-11-11T18:27:21.574Z,29.77
2022-11-11T18:29:49.674Z,26.83
2022-11-11T18:32:17.801Z,32.93
2022-11-11T18:34:45.983Z,30.30
2022-11-11T18:37:15.490Z,35.97
2022-11-11T18:39:43.665Z,36.13
2022-11-11T18:42:12.006Z,31.00
2022-11-11T18:44:40.150Z,31.47
2022-11-11T18:47:08.653Z,33.63
2022-11-11T18:49:36.747Z,29.47
2022-11-11T18:52:04.996Z,30.07
2022-11-11T18:54:34.507Z,30.87
2022-11-11T18:57:02.626Z,35.70
2022-11-11T18:59:30.754Z,41.73
2022-11-11T19:01:59.300Z,38.97
2022-11-11T19:04:27.999Z,36.47
2022-11-11T19:06:57.020Z,42.93
2022-11-11T19:09:26.991Z,37.47
2022-11-11T19:11:56.530Z,36.83
2022-11-11T19:14:27.353Z,35.40
2022-11-11T19:16:55.566Z,37.83
2022-11-11T19:19:23.752Z,37.27
2022-11-11T19:21:52.004Z,40.27
2022-11-11T19:24:20.266Z,36.87
2022-11-11T19:26:48.669Z,36.87
2022-11-11T19:29:18.373Z,36.17
2022-11-11T19:31:49.229Z,35.33
2022-11-11T19:34:17.435Z,36.27
2022-11-11T19:36:45.550Z,40.27
2022-11-11T19:39:13.915Z,41.23
2022-11-11T19:41:42.029Z,42.03
2022-11-11T19:44:12.806Z,37.73
2022-11-11T19:46:42.585Z,39.70
2022-11-11T19:49:10.844Z,39.50
2022-11-11T19:51:38.974Z,39.60
2022-11-11T19:54:07.154Z,37.73
2022-11-11T19:56:35.638Z,41.27
2022-11-11T19:59:04.252Z,39.93
2022-11-11T20:01:34.155Z,45.10
2022-11-11T20:04:03.698Z,39.57
2022-11-11T20:06:32.521Z,38.30
2022-11-11T20:09:01.927Z,43.47
2022-11-11T20:11:30.331Z,36.97
2022-11-11T20:13:58.551Z,40.40
2022-11-11T20:16:27.142Z,37.63
2022-11-11T20:18:56.546Z,37.77
2022-11-11T20:21:26.059Z,38.13
2022-11-11T20:23:54.299Z,35.17
2022-11-11T20:26:22.477Z,35.73
2022-11-11T20:28:56.298Z,38.03
2022-11-11T20:31:24.829Z,38.43
2022-11-11T20:33:52.922Z,35.70
2022-11-11T20:36:21.046Z,38.23
2022-11-11T20:38:50.991Z,37.13
2022-11-11T20:41:20.001Z,35.03
2022-11-11T20:43:48.170Z,34.50
2022-11-11T20:46:17.083Z,35.17
2022-11-11T20:48:45.986Z,34.57
2022-11-11T20:51:14.972Z,32.57
2022-11-11T20:53:43.380Z,34.20
2022-11-11T20:56:13.883Z,34.10
2022-11-11T20:58:42.170Z,32.57
2022-11-11T21:01:11.158Z,33.00
2022-11-11T21:03:39.405Z,31.80
2022-11-11T21:06:08.920Z,31.20
2022-11-11T21:08:37.979Z,30.27
2022-11-11T21:11:06.708Z,28.97
2022-11-11T21:13:36.360Z,29.30
2022-11-11T21:16:05.735Z,30.40
2022-11-11T21:18:34.107Z,29.00
2022-11-11T21:21:07.522Z,28.60
2022-11-11T21:23:35.655Z,30.03
2022-11-11T21:26:04.400Z,30.33
2022-11-11T21:28:35.462Z,32.00
2022-11-11T21:31:04.226Z,29.40
2022-11-11T21:33:32.418Z,29.40
2022-11-11T21:36:05.194Z,32.23
2022-11-11T21:38:34.455Z,40.77
2022-11-11T21:41:03.822Z,47.87
2022-11-11T21:43:32.151Z,55.37
2022-11-11T21:46:05.117Z,62.93
2022-11-11T21:48:34.151Z,63.57
2022-11-11T21:51:04.119Z,48.47
2022-11-11T21:53:32.429Z,42.00
2022-11-11T21:56:01.986Z,46.57
2022-11-11T21:58:30.370Z,37.73
2022-11-11T22:01:05.937Z,37.43
2022-11-11T22:03:34.070Z,38.60
2022-11-11T22:06:06.344Z,36.80
2022-11-11T22:08:34.596Z,35.67
2022-11-11T22:11:04.280Z,31.40
2022-11-11T22:13:32.574Z,31.60
2022-11-11T22:16:01.997Z,35.27
2022-11-11T22:18:31.702Z,32.80
2022-11-11T22:21:06.633Z,30.93
2022-11-11T22:23:34.942Z,33.77
2022-11-11T22:26:03.356Z,34.20
2022-11-11T22:28:31.664Z,33.10
2022-11-11T22:31:07.662Z,39.53
2022-11-11T22:33:37.234Z,35.20
2022-11-11T22:36:06.680Z,34.67
2022-11-11T22:38:34.936Z,33.83
2022-11-11T22:41:03.284Z,37.57
2022-11-11T22:43:57.923Z,33.83
2022-11-11T22:46:23.882Z,34.17
2022-11-11T22:48:55.320Z,33.80
2022-11-11T22:51:23.565Z,34.33
2022-11-11T22:53:55.244Z,36.90
2022-11-11T22:56:23.350Z,38.17
2022-11-11T22:58:51.741Z,38.50
2022-11-11T23:01:28.808Z,36.93
2022-11-11T23:03:59.619Z,38.67
2022-11-11T23:06:29.071Z,39.20
2022-11-11T23:08:57.307Z,41.53
2022-11-11T23:11:26.152Z,39.33
2022-11-11T23:13:54.348Z,45.90
2022-11-11T23:16:22.569Z,47.73
2022-11-11T23:18:50.670Z,45.83
2022-11-11T23:21:21.097Z,48.10
2022-11-11T23:23:49.958Z,53.87
2022-11-11T23:26:19.557Z,51.43
2022-11-11T23:28:47.683Z,48.30
2022-11-11T23:31:16.825Z,47.20
2022-11-11T23:33:46.111Z,50.53
2022-11-11T23:36:15.543Z,46.27
2022-11-11T23:38:45.216Z,50.40
2022-11-11T23:41:13.345Z,48.17
2022-11-11T23:43:41.451Z,50.63
2022-11-11T23:46:09.668Z,49.17
2022-11-11T23:48:37.979Z,44.27
2022-11-11T23:51:06.194Z,48.67
2022-11-11T23:53:35.019Z,51.30
2022-11-11T23:56:04.830Z,46.30
2022-11-11T23:58:33.185Z,51.30
